Time;durP1;ratioP1;P1;durP2;ratioP2;P2;SDS_P1;SDS_P2;PMS_P1;PMS_P2;Temp;Humidity;BMP_temperature;BMP_pressure;BME280_temperature;BME280_humidity;BME280_pressure;Samples;Min_cycle;Max_cycle;Signal;HPM_P1;HPM_P2
2024/03/22 00:01:52;;;;;;;24.73;4.95;;;;;;;4.37;100.00;100923.78;5061323;28;20051;-75
2024/03/22 00:04:18;;;;;;;22.58;5.03;;;;;;;4.47;100.00;100940.53;5060872;28;20029;-75
2024/03/22 00:06:45;;;;;;;20.95;5.13;;;;;;;4.44;100.00;100930.19;5059060;28;20043;-75
2024/03/22 00:09:11;;;;;;;25.38;5.82;;;;;;;4.47;100.00;100936.03;5059541;28;20024;-77
2024/03/22 00:11:36;;;;;;;20.13;5.05;;;;;;;4.49;100.00;100925.22;5058794;28;20572;-75
2024/03/22 00:14:03;;;;;;;19.48;5.25;;;;;;;4.50;100.00;100928.72;5059293;28;20036;-75
2024/03/22 00:16:29;;;;;;;26.42;5.80;;;;;;;4.37;100.00;100914.00;5059947;28;20458;-75
2024/03/22 00:18:54;;;;;;;19.98;5.40;;;;;;;4.52;100.00;100934.72;5059660;28;20101;-75
2024/03/22 00:21:21;;;;;;;20.48;5.07;;;;;;;4.53;100.00;100921.22;5059854;28;20385;-76
2024/03/22 00:23:47;;;;;;;27.90;5.60;;;;;;;4.53;100.00;100923.91;5061369;28;20033;-75
2024/03/22 00:26:12;;;;;;;27.35;5.43;;;;;;;4.53;100.00;100912.41;5062058;28;20033;-75
2024/03/22 00:28:37;;;;;;;25.20;6.25;;;;;;;4.33;100.00;100874.47;5062610;28;20104;-74
2024/03/22 00:31:03;;;;;;;26.27;5.95;;;;;;;4.37;100.00;100871.38;5059421;28;20380;-75
2024/03/22 00:33:28;;;;;;;25.35;6.18;;;;;;;4.57;100.00;100898.63;5060795;28;20021;-75
2024/03/22 00:35:54;;;;;;;20.20;5.25;;;;;;;4.59;100.00;100891.28;5060066;28;20025;-75
2024/03/22 00:38:19;;;;;;;25.02;6.18;;;;;;;4.59;100.00;100880.63;5060402;28;20037;-75
2024/03/22 00:40:44;;;;;;;30.50;7.43;;;;;;;4.61;100.00;100878.66;5061214;28;20028;-75
2024/03/22 00:43:10;;;;;;;34.22;8.07;;;;;;;4.61;100.00;100869.84;5059775;28;20446;-76
2024/03/22 00:45:35;;;;;;;29.92;7.30;;;;;;;4.62;100.00;100869.66;5058890;28;20056;-75
2024/03/22 00:48:00;;;;;;;26.90;7.18;;;;;;;4.62;100.00;100861.66;5072892;28;20044;-75
2024/03/22 00:50:26;;;;;;;30.10;7.90;;;;;;;4.64;100.00;100857.03;5057887;28;20360;-76
2024/03/22 00:52:52;;;;;;;29.63;9.00;;;;;;;4.66;100.00;100846.19;5058508;28;20036;-76
2024/03/22 00:55:18;;;;;;;30.35;8.13;;;;;;;4.67;100.00;100838.06;5058409;28;20045;-76
2024/03/22 00:57:43;;;;;;;30.27;7.85;;;;;;;4.69;100.00;100838.72;5057846;28;20041;-76
2024/03/22 01:00:09;;;;;;;33.53;7.97;;;;;;;4.70;100.00;100835.06;5057109;28;20060;-76
2024/03/22 01:02:35;;;;;;;33.40;8.50;;;;;;;4.70;100.00;100835.06;5060362;28;20056;-75
2024/03/22 01:05:00;;;;;;;28.30;8.00;;;;;;;4.71;100.00;100830.56;5059019;28;20048;-76
2024/03/22 01:07:25;;;;;;;31.48;8.85;;;;;;;4.75;100.00;100817.75;5058174;28;20032;-76
2024/03/22 01:09:55;;;;;;;29.83;8.75;;;;;;;4.67;100.00;100803.41;5073027;28;20622;-76
2024/03/22 01:12:20;;;;;;;30.55;9.25;;;;;;;4.64;100.00;100789.56;5058002;28;20013;-76
2024/03/22 01:14:45;;;;;;;30.33;8.90;;;;;;;4.80;100.00;100810.94;5056423;28;20025;-77
2024/03/22 01:17:11;;;;;;;34.63;8.55;;;;;;;4.83;100.00;100804.44;5058405;28;20067;-76
2024/03/22 01:19:36;;;;;;;36.65;9.13;;;;;;;4.83;100.00;100793.78;5057485;28;20029;-76
2024/03/22 01:22:02;;;;;;;31.73;9.52;;;;;;;4.84;100.00;100809.63;5058278;28;20044;-77
2024/03/22 01:24:27;;;;;;;37.50;10.02;;;;;;;4.76;100.00;100774.94;5057328;28;20033;-76
2024/03/22 01:26:53;;;;;;;32.60;8.85;;;;;;;4.87;100.00;100784.47;5057765;28;20118;-77
2024/03/22 01:29:19;;;;;;;31.40;9.93;;;;;;;4.89;100.00;100785.13;5057546;28;20033;-76
2024/03/22 01:31:44;;;;;;;36.60;10.07;;;;;;;4.90;100.00;100776.13;5055718;28;20029;-76
2024/03/22 01:34:09;;;;;;;33.72;9.75;;;;;;;4.93;100.00;100781.13;5057426;28;20523;-77
2024/03/22 01:36:35;;;;;;;37.15;9.63;;;;;;;4.93;100.00;100770.47;5056153;28;20048;-76
2024/03/22 01:39:00;;;;;;;33.90;9.70;;;;;;;4.93;100.00;100770.47;5057550;28;20064;-75
2024/03/22 01:41:26;;;;;;;43.03;10.05;;;;;;;4.97;100.00;100760.31;5056614;28;20057;-75
2024/03/22 01:43:52;;;;;;;40.92;11.23;;;;;;;4.82;100.00;100736.97;5057628;28;20037;-76
2024/03/22 01:46:18;;;;;;;38.90;10.43;;;;;;;4.97;100.00;100745.16;5055503;28;20071;-76
2024/03/22 01:48:43;;;;;;;40.70;9.77;;;;;;;4.57;100.00;100668.59;5057170;28;20032;-76
2024/03/22 01:51:10;;;;;;;40.30;10.75;;;;;;;4.99;100.00;100724.50;5056898;28;20024;-76
2024/03/22 01:53:37;;;;;;;37.60;10.90;;;;;;;5.00;100.00;100718.19;5057255;28;20850;-75
2024/03/22 01:56:02;;;;;;;33.38;10.52;;;;;;;5.01;100.00;100711.84;5057685;28;20029;-75
2024/03/22 01:58:28;;;;;;;31.40;10.43;;;;;;;5.03;100.00;100711.66;5073640;28;20059;-76
2024/03/22 02:00:54;;;;;;;35.70;11.30;;;;;;;5.04;100.00;100702.69;5072380;28;20053;-76
2024/03/22 02:03:19;;;;;;;35.78;10.98;;;;;;;4.97;100.00;100691.84;5056694;28;20116;-76
2024/03/22 02:05:45;;;;;;;37.65;11.88;;;;;;;5.05;100.00;100699.00;5056824;28;20016;-76
2024/03/22 02:08:10;;;;;;;29.60;10.88;;;;;;;5.04;100.00;100702.69;5056653;28;20040;-75
2024/03/22 02:10:36;;;;;;;34.10;12.32;;;;;;;5.10;100.00;100712.66;5057191;28;20031;-76
2024/03/22 02:13:01;;;;;;;34.13;12.50;;;;;;;5.05;100.00;100686.50;5056441;28;20036;-76
2024/03/22 02:15:27;;;;;;;40.40;13.10;;;;;;;5.09;100.00;100674.50;5056410;28;20037;-76
2024/03/22 02:17:52;;;;;;;37.17;12.35;;;;;;;5.11;100.00;100677.84;5056916;28;20032;-77
2024/03/22 02:20:18;;;;;;;33.75;12.98;;;;;;;5.12;100.00;100666.16;5056733;28;20029;-76
2024/03/22 02:22:43;;;;;;;40.67;12.05;;;;;;;5.00;100.00;100647.97;5056487;28;20033;-77
2024/03/22 02:25:09;;;;;;;33.95;11.93;;;;;;;4.75;100.00;100593.84;5056812;28;20032;-76
2024/03/22 02:27:34;;;;;;;34.40;12.73;;;;;;;5.07;100.00;100655.16;5057447;28;20025;-76
2024/03/22 02:30:01;;;;;;;38.20;11.85;;;;;;;5.18;100.00;100668.16;5056576;28;20036;-76
2024/03/22 02:32:26;;;;;;;35.03;12.50;;;;;;;5.18;100.00;100652.16;5054368;28;20037;-78
2024/03/22 02:34:52;;;;;;;33.35;12.60;;;;;;;5.18;100.00;100644.16;5055803;28;20032;-76
2024/03/22 02:37:17;;;;;;;32.08;11.70;;;;;;;4.81;100.00;100580.69;5057279;28;20124;-76
2024/03/22 02:39:42;;;;;;;35.63;12.23;;;;;;;5.20;100.00;100654.66;5057724;28;20071;-75
2024/03/22 02:42:08;;;;;;;40.75;13.82;;;;;;;5.22;100.00;100644.66;5058973;28;20033;-76
2024/03/22 02:44:33;;;;;;;40.63;13.13;;;;;;;5.21;100.00;100634.16;5060301;28;20021;-75
2024/03/22 02:46:59;;;;;;;34.22;12.45;;;;;;;5.22;100.00;100641.97;5060347;28;20024;-77
2024/03/22 02:49:25;;;;;;;36.65;12.45;;;;;;;5.21;100.00;100626.16;5060396;28;20112;-76
2024/03/22 02:51:51;;;;;;;34.15;12.57;;;;;;;5.23;100.00;100637.47;5058994;28;20116;-76
2024/03/22 02:54:17;;;;;;;36.08;14.18;;;;;;;5.27;100.00;100626.31;5057550;28;20056;-76
2024/03/22 02:56:42;;;;;;;40.90;13.75;;;;;;;5.28;100.00;100616.47;5058299;28;20033;-77
2024/03/22 02:59:07;;;;;;;36.92;14.77;;;;;;;4.45;100.00;100468.28;5056517;28;20033;-77
2024/03/22 03:01:33;;;;;;;46.25;15.82;;;;;;;5.30;100.00;100606.47;5057348;28;20072;-76
2024/03/22 03:03:58;;;;;;;42.35;15.85;;;;;;;5.10;100.00;100569.50;5063294;28;20060;-76
2024/03/22 03:06:24;;;;;;;46.55;16.85;;;;;;;5.29;100.00;100596.78;5064117;28;20039;-75
2024/03/22 03:08:49;;;;;;;43.58;16.38;;;;;;;5.31;100.00;100595.63;5063074;28;20029;-77
2024/03/22 03:11:15;;;;;;;44.28;15.63;;;;;;;5.33;100.00;100595.44;5063133;28;20029;-77
2024/03/22 03:13:40;;;;;;;42.47;15.38;;;;;;;5.33;100.00;100587.44;5063052;28;20025;-77
2024/03/22 03:16:06;;;;;;;50.67;16.90;;;;;;;5.34;100.00;100586.47;5062947;28;20499;-76
2024/03/22 03:18:31;;;;;;;48.60;15.98;;;;;;;5.21;100.00;100554.13;5063401;28;20088;-77
2024/03/22 03:20:56;;;;;;;45.95;15.98;;;;;;;5.36;100.00;100573.75;5064412;28;20203;-76
2024/03/22 03:23:22;;;;;;;43.90;15.25;;;;;;;5.37;100.00;100567.44;5062351;28;20036;-76
2024/03/22 03:25:47;;;;;;;42.30;15.75;;;;;;;5.34;100.00;100559.78;5060688;28;20068;-77
2024/03/22 03:28:13;;;;;;;35.45;14.40;;;;;;;5.07;100.00;100521.00;5062772;28;20032;-78
2024/03/22 03:30:39;;;;;;;43.17;16.20;;;;;;;5.42;100.00;100578.41;5063164;28;20052;-78
2024/03/22 03:33:05;;;;;;;45.75;16.40;;;;;;;5.27;100.00;100554.28;5061469;28;20068;-76
2024/03/22 03:35:30;;;;;;;39.75;16.20;;;;;;;5.37;100.00;100570.09;5062271;28;20495;-77
2024/03/22 03:37:56;;;;;;;40.33;15.57;;;;;;;5.46;100.00;100579.72;5063086;28;20037;-77
2024/03/22 03:40:24;;;;;;;43.80;16.52;;;;;;;5.49;100.00;100573.22;5061233;28;20069;-79
2024/03/22 03:42:52;;;;;;;48.85;15.98;;;;;;;5.43;100.00;100561.44;5062229;28;20043;-77
2024/03/22 03:45:18;;;;;;;44.60;16.70;;;;;;;5.48;100.00;100564.38;5062444;28;20059;-77
2024/03/22 03:47:43;;;;;;;42.15;16.35;;;;;;;5.47;100.00;100554.72;5061902;28;20032;-77
2024/03/22 03:50:09;;;;;;;52.97;16.63;;;;;;;5.50;100.00;100569.56;5063158;28;20484;-76
2024/03/22 03:52:34;;;;;;;54.15;17.33;;;;;;;5.40;100.00;100553.75;5062039;28;20029;-77
2024/03/22 03:55:00;;;;;;;48.72;16.90;;;;;;;5.52;100.00;100567.53;5062558;28;20082;-78
2024/03/22 03:57:25;;;;;;;44.17;16.98;;;;;;;5.53;100.00;100554.03;5062509;28;20043;-77
2024/03/22 03:59:51;;;;;;;42.92;16.10;;;;;;;5.54;100.00;100536.19;5061829;28;20523;-77
2024/03/22 04:02:16;;;;;;;40.38;15.30;;;;;;;5.55;100.00;100509.31;5063040;28;20033;-79
2024/03/22 04:04:42;;;;;;;42.78;15.60;;;;;;;5.54;100.00;100506.84;5077457;28;20453;-77
2024/03/22 04:07:07;;;;;;;35.75;14.65;;;;;;;5.54;100.00;100501.50;5062496;28;20033;-77
2024/03/22 04:09:34;;;;;;;34.67;14.15;;;;;;;5.54;100.00;100501.50;5063354;28;20419;-78
2024/03/22 04:11:59;;;;;;;36.38;14.63;;;;;;;5.56;100.00;100507.47;5062751;28;20056;-78
2024/03/22 04:14:25;;;;;;;39.28;15.57;;;;;;;5.39;100.00;100490.69;5058681;28;20060;-78
2024/03/22 04:16:50;;;;;;;41.42;15.40;;;;;;;5.57;100.00;100518.00;5060465;28;20433;-78
2024/03/22 04:19:16;;;;;;;46.67;16.65;;;;;;;5.58;100.00;100511.63;5060016;28;20047;-77
2024/03/22 04:21:41;;;;;;;40.17;16.00;;;;;;;5.59;100.00;100499.13;5060168;28;20073;-78
2024/03/22 04:24:07;;;;;;;47.45;16.95;;;;;;;5.42;100.00;100483.19;5059550;28;20033;-77
2024/03/22 04:26:32;;;;;;;40.45;16.88;;;;;;;5.61;100.00;100502.47;5059873;28;20482;-78
2024/03/22 04:28:57;;;;;;;44.67;17.13;;;;;;;5.58;100.00;100498.28;5059414;28;20537;-78
2024/03/22 04:31:23;;;;;;;51.28;17.15;;;;;;;5.63;100.00;100495.94;5059317;28;20060;-78
2024/03/22 04:33:48;;;;;;;41.25;17.23;;;;;;;5.63;100.00;100489.78;5059019;28;20025;-78
2024/03/22 04:36:15;;;;;;;37.35;17.00;;;;;;;5.60;100.00;100482.94;5059272;28;20550;-78
2024/03/22 04:38:40;;;;;;;52.03;17.48;;;;;;;5.51;100.00;100475.97;5058693;28;20071;-77
2024/03/22 04:41:06;;;;;;;37.35;16.45;;;;;;;5.68;100.00;100491.91;5057494;28;20025;-76
2024/03/22 04:43:31;;;;;;;46.97;17.80;;;;;;;5.60;100.00;100461.59;5058232;28;20028;-77
2024/03/22 04:45:56;;;;;;;47.03;17.58;;;;;;;5.70;100.00;100468.56;5058139;28;20534;-77
2024/03/22 04:48:23;;;;;;;49.80;17.60;;;;;;;5.70;100.00;100468.56;5056490;28;20025;-77
2024/03/22 04:50:53;;;;;;;50.85;17.65;;;;;;;5.70;100.00;100452.53;5058818;28;20063;-78
2024/03/22 04:53:21;;;;;;;67.13;21.20;;;;;;;5.69;100.00;100451.69;5058257;28;20032;-78
2024/03/22 04:55:47;;;;;;;60.80;21.08;;;;;;;5.68;100.00;100444.69;5059327;28;20504;-78
2024/03/22 04:58:14;;;;;;;65.05;21.20;;;;;;;5.70;100.00;100457.88;5059577;28;20029;-77
2024/03/22 05:00:39;;;;;;;52.88;19.55;;;;;;;5.59;100.00;100440.41;5058366;28;20386;-78
2024/03/22 05:03:05;;;;;;;59.08;20.73;;;;;;;5.70;100.00;100465.91;5059090;28;20036;-76
2024/03/22 05:05:30;;;;;;;71.85;23.23;;;;;;;5.71;100.00;100449.69;5059053;28;20029;-77
2024/03/22 05:07:56;;;;;;;61.85;23.27;;;;;;;5.69;100.00;100450.84;5059597;28;20061;-77
2024/03/22 05:10:21;;;;;;;74.25;24.30;;;;;;;5.72;100.00;100440.66;5058644;28;20036;-78
2024/03/22 05:12:46;;;;;;;75.10;23.38;;;;;;;5.63;100.00;100415.03;5058620;28;20063;-79
2024/03/22 05:15:12;;;;;;;70.90;23.92;;;;;;;5.68;100.00;100419.84;5057394;28;20056;-78
2024/03/22 05:17:39;;;;;;;70.63;24.42;;;;;;;5.75;100.00;100436.81;5059260;28;20060;-78
2024/03/22 05:20:05;;;;;;;70.25;23.58;;;;;;;5.73;100.00;100428.13;5058885;28;20033;-77
2024/03/22 05:22:31;;;;;;;71.05;22.42;;;;;;;5.72;100.00;100403.28;5038430;28;20583;-78
2024/03/22 05:24:56;;;;;;;81.03;23.42;;;;;;;5.78;100.00;100402.59;5038233;28;20076;-77
2024/03/22 05:27:22;;;;;;;78.68;22.75;;;;;;;5.80;100.00;100405.09;5039052;28;20029;-78
2024/03/22 05:29:47;;;;;;;78.93;23.23;;;;;;;5.74;100.00;100392.44;5057774;28;20032;-77
2024/03/22 05:32:12;;;;;;;75.80;23.95;;;;;;;5.82;100.00;100400.38;5058829;28;20082;-77
2024/03/22 05:34:38;;;;;;;68.30;23.27;;;;;;;5.73;100.00;100377.41;5058600;28;20053;-77
2024/03/22 05:37:04;;;;;;;70.95;22.77;;;;;;;5.77;100.00;100384.91;5058124;28;20432;-78
2024/03/22 05:39:29;;;;;;;76.57;25.17;;;;;;;5.71;100.00;100382.13;5057402;28;20043;-78
2024/03/22 05:41:54;;;;;;;78.53;26.10;;;;;;;5.78;100.00;100399.91;5059644;28;20498;-77
2024/03/22 05:44:23;;;;;;;76.53;25.27;;;;;;;5.72;100.00;100403.28;5056707;28;20032;-78
2024/03/22 05:46:49;;;;;;;75.80;25.15;;;;;;;5.83;100.00;100410.06;5058138;28;20395;-79
2024/03/22 05:49:15;;;;;;;78.57;24.75;;;;;;;5.85;100.00;100408.03;5047895;28;20033;-77
2024/03/22 05:51:40;;;;;;;75.38;24.65;;;;;;;5.87;100.00;100403.38;5048709;28;20029;-77
2024/03/22 05:54:06;;;;;;;95.82;26.17;;;;;;;5.88;100.00;100397.00;5044748;28;20033;-78
2024/03/22 05:56:31;;;;;;;79.55;24.33;;;;;;;5.85;100.00;100392.03;5038504;28;20037;-78
2024/03/22 05:58:57;;;;;;;93.38;25.40;;;;;;;5.93;100.00;100380.47;5038021;28;20079;-78
2024/03/22 06:01:22;;;;;;;83.70;24.40;;;;;;;5.94;100.00;100384.81;5035992;28;20743;-77
2024/03/22 06:03:48;;;;;;;92.05;26.33;;;;;;;5.89;100.00;100377.28;5037672;28;20044;-77
2024/03/22 06:06:13;;;;;;;87.57;26.58;;;;;;;5.88;100.00;100380.97;5036355;28;20029;-78
2024/03/22 06:08:41;;;;;;;90.45;26.15;;;;;;;5.91;100.00;100383.28;5038819;28;20053;-77
2024/03/22 06:11:07;;;;;;;89.05;25.02;;;;;;;5.89;100.00;100382.63;5038193;28;20046;-77
2024/03/22 06:13:34;;;;;;;86.97;26.65;;;;;;;5.90;100.00;100376.31;5037418;28;20035;-78
2024/03/22 06:16:00;;;;;;;78.68;24.20;;;;;;;5.89;100.00;100370.13;5040974;28;20028;-78
2024/03/22 06:18:25;;;;;;;86.28;27.13;;;;;;;5.71;100.00;100326.88;5039496;28;20157;-79
2024/03/22 06:20:54;;;;;;;84.10;24.95;;;;;;;5.76;100.00;100334.34;5037556;28;20033;-79
2024/03/22 06:23:19;;;;;;;74.43;25.67;;;;;;;5.89;100.00;100356.78;5037800;28;20053;-77
2024/03/22 06:25:54;;;;;;;77.90;26.00;;;;;;;5.84;100.00;100359.16;5043044;28;20103;-79
2024/03/22 06:28:20;;;;;;;90.00;26.40;;;;;;;5.82;100.00;100346.97;5038290;28;20060;-74
2024/03/22 06:30:45;;;;;;;87.25;27.13;;;;;;;5.95;100.00;100370.44;5054008;28;20033;-75
2024/03/22 06:33:11;;;;;;;91.50;27.70;;;;;;;5.97;100.00;100371.94;5060921;28;20070;-76
2024/03/22 06:35:36;;;;;;;87.30;27.63;;;;;;;5.97;100.00;100358.59;5056997;28;20318;-74
2024/03/22 06:38:02;;;;;;;78.30;26.35;;;;;;;5.94;100.00;100347.44;5055779;28;20032;-74
2024/03/22 06:40:29;;;;;;;93.15;29.60;;;;;;;5.92;100.00;100347.56;5058100;28;20079;-75
2024/03/22 06:42:54;;;;;;;96.47;30.30;;;;;;;5.53;100.00;100278.31;5052284;28;20036;-77
2024/03/22 06:45:19;;;;;;;100.18;29.50;;;;;;;5.98;100.00;100354.06;5048537;28;20126;-73
2024/03/22 06:47:45;;;;;;;91.32;30.05;;;;;;;5.97;100.00;100347.91;5043872;28;20476;-72
2024/03/22 06:50:11;;;;;;;83.05;29.65;;;;;;;6.01;100.00;100340.34;5048146;28;20033;-76
2024/03/22 06:52:36;;;;;;;85.53;28.23;;;;;;;6.05;100.00;100334.47;5040686;28;20481;-72
2024/03/22 06:55:03;;;;;;;95.53;29.55;;;;;;;5.89;100.00;100299.84;5035777;28;20037;-73
2024/03/22 06:57:28;;;;;;;92.75;29.10;;;;;;;6.09;100.00;100321.56;5036102;28;20026;-75
2024/03/22 06:59:54;;;;;;;86.95;28.65;;;;;;;6.13;100.00;100319.38;5047884;28;20515;-75
2024/03/22 07:02:20;;;;;;;94.03;28.55;;;;;;;6.14;100.00;100326.38;5054552;28;20025;-74
2024/03/22 07:04:45;;;;;;;83.07;26.50;;;;;;;5.82;100.00;100269.56;5053951;28;20536;-74
2024/03/22 07:07:11;;;;;;;76.53;26.70;;;;;;;6.18;100.00;100323.16;5055587;28;20087;-74
2024/03/22 07:09:36;;;;;;;79.65;24.73;;;;;;;6.21;100.00;100327.31;5055403;28;20033;-75
2024/03/22 07:12:02;;;;;;;71.13;22.92;;;;;;;6.24;100.00;100325.09;5049317;28;20509;-74
2024/03/22 07:14:27;;;;;;;77.95;25.77;;;;;;;6.28;100.00;100330.91;5056047;28;20036;-74
2024/03/22 07:16:56;;;;;;;81.70;24.77;;;;;;;6.16;100.00;100311.84;5039389;28;20037;-74
2024/03/22 07:19:21;;;;;;;78.25;25.38;;;;;;;6.28;100.00;100328.22;5036288;28;20030;-74
2024/03/22 07:21:47;;;;;;;75.43;23.83;;;;;;;6.24;100.00;100322.44;5041189;28;20036;-75
2024/03/22 07:24:13;;;;;;;79.65;24.40;;;;;;;6.31;100.00;100322.53;5054976;28;20659;-75
2024/03/22 07:26:38;;;;;;;78.25;23.88;;;;;;;6.35;100.00;100315.78;5045459;28;20033;-75
2024/03/22 07:29:04;;;;;;;83.35;24.75;;;;;;;6.38;100.00;100312.75;5052782;28;20033;-74
2024/03/22 07:31:29;;;;;;;79.75;24.80;;;;;;;6.40;100.00;100299.22;5051844;28;20025;-75
2024/03/22 07:33:55;;;;;;;81.25;23.50;;;;;;;6.45;100.00;100303.00;5054506;28;21116;-74
2024/03/22 07:36:21;;;;;;;75.75;22.50;;;;;;;6.48;100.00;100310.63;5058999;28;20399;-74
2024/03/22 07:38:48;;;;;;;77.82;22.73;;;;;;;6.46;100.00;100298.50;5061078;28;20084;-74
2024/03/22 07:41:14;;;;;;;82.03;21.05;;;;;;;6.41;100.00;100285.66;5055944;28;20063;-74
2024/03/22 07:43:40;;;;;;;63.40;20.67;;;;;;;6.58;100.00;100313.03;5056072;28;20029;-74
2024/03/22 07:46:05;;;;;;;76.45;20.23;;;;;;;6.57;100.00;100314.88;5054442;28;20503;-74
2024/03/22 07:48:31;;;;;;;72.45;19.92;;;;;;;6.59;100.00;100310.19;5051085;28;20040;-74
2024/03/22 07:50:58;;;;;;;73.63;19.58;;;;;;;6.62;100.00;100313.50;5053331;28;20024;-74
2024/03/22 07:53:23;;;;;;;73.85;19.77;;;;;;;6.55;100.00;100300.88;5045605;28;20033;-74
2024/03/22 07:55:49;;;;;;;79.65;20.48;;;;;;;6.30;100.00;100259.44;5043007;28;20155;-73
2024/03/22 07:58:14;;;;;;;74.97;19.40;;;;;;;6.66;100.00;100304.94;5041341;28;20033;-74
2024/03/22 08:00:40;;;;;;;76.57;21.40;;;;;;;6.66;100.00;100301.44;5042370;28;20049;-74
2024/03/22 08:03:05;;;;;;;76.13;19.90;;;;;;;6.66;100.00;100298.75;5046970;28;20025;-74
2024/03/22 08:05:31;;;;;;;66.43;19.42;;;;;;;6.66;100.00;100299.59;5046383;28;20026;-73
2024/03/22 08:07:56;;;;;;;70.90;19.75;;;;;;;6.70;100.00;100294.69;5043911;28;20490;-72
2024/03/22 08:10:23;;;;;;;64.63;18.73;;;;;;;6.71;100.00;100293.66;5041089;28;20038;-71
2024/03/22 08:12:48;;;;;;;72.15;20.00;;;;;;;6.72;100.00;100300.66;5040187;28;20465;-71
2024/03/22 08:15:14;;;;;;;82.03;20.27;;;;;;;6.57;100.00;100279.31;5038649;28;20034;-71
2024/03/22 08:17:40;;;;;;;68.15;18.35;;;;;;;6.72;100.00;100290.81;5039805;28;20076;-71
2024/03/22 08:20:06;;;;;;;71.22;18.80;;;;;;;6.73;100.00;100295.16;5040247;28;20038;-72
2024/03/22 08:22:32;;;;;;;64.20;17.15;;;;;;;6.75;100.00;100301.13;5039707;28;20057;-70
2024/03/22 08:24:57;;;;;;;71.43;18.30;;;;;;;6.66;100.00;100293.41;5040054;28;20021;-74
2024/03/22 08:27:24;;;;;;;73.07;19.23;;;;;;;6.76;100.00;100307.31;5061449;28;20624;-75
2024/03/22 08:29:50;;;;;;;61.08;17.45;;;;;;;6.75;100.00;100294.94;5059612;28;20041;-75
2024/03/22 08:32:15;;;;;;;64.57;16.38;;;;;;;6.76;100.00;100299.31;5057609;28;20104;-75
2024/03/22 08:34:40;;;;;;;61.97;16.77;;;;;;;6.75;100.00;100297.63;5057940;28;20039;-77
2024/03/22 08:37:06;;;;;;;70.75;17.20;;;;;;;6.75;100.00;100294.94;5060825;28;20091;-76
2024/03/22 08:39:32;;;;;;;76.93;17.73;;;;;;;6.75;100.00;100297.63;5063766;28;20039;-74
2024/03/22 08:41:58;;;;;;;71.45;17.55;;;;;;;6.75;100.00;100298.44;5059696;28;20093;-72
2024/03/22 08:44:23;;;;;;;63.30;16.92;;;;;;;6.76;100.00;100293.97;5060391;28;20436;-73
2024/03/22 08:46:49;;;;;;;78.68;17.30;;;;;;;6.77;100.00;100298.28;5058356;28;20033;-74
2024/03/22 08:49:15;;;;;;;78.95;16.27;;;;;;;6.75;100.00;100294.94;5055760;28;20107;-73
2024/03/22 08:51:41;;;;;;;78.50;16.55;;;;;;;6.74;100.00;100290.63;5059574;28;20084;-72
2024/03/22 08:54:06;;;;;;;83.50;18.85;;;;;;;6.78;100.00;100294.56;5059165;28;20033;-72
2024/03/22 08:56:32;;;;;;;82.30;17.13;;;;;;;6.79;100.00;100298.94;5060079;28;20035;-73
2024/03/22 08:58:57;;;;;;;79.28;16.38;;;;;;;6.86;100.00;100301.69;5059080;28;20036;-71
2024/03/22 09:01:23;;;;;;;83.68;16.17;;;;;;;6.90;100.00;100295.75;5058849;28;20080;-73
2024/03/22 09:03:49;;;;;;;89.53;17.88;;;;;;;6.96;100.00;100295.03;5050571;28;20033;-75
2024/03/22 09:06:14;;;;;;;86.95;16.63;;;;;;;6.93;100.00;100273.16;5038916;28;20129;-76
2024/03/22 09:08:40;;;;;;;103.28;16.77;;;;;;;7.15;100.00;100277.53;5038725;28;20090;-76
2024/03/22 09:11:05;;;;;;;96.57;14.98;;;;;;;7.27;100.00;100288.56;5038103;28;20022;-77
2024/03/22 09:13:32;;;;;;;81.75;14.48;;;;;;;7.41;100.00;100292.19;5039178;28;20029;-76
2024/03/22 09:15:58;;;;;;;87.50;14.60;;;;;;;7.42;100.00;100283.97;5038623;28;20038;-76
2024/03/22 09:18:24;;;;;;;84.90;14.32;;;;;;;7.47;100.00;100286.91;5038603;28;20025;-76
2024/03/22 09:20:50;;;;;;;93.60;14.98;;;;;;;7.50;100.00;100281.16;5040512;28;20036;-76
2024/03/22 09:23:15;;;;;;;90.80;14.55;;;;;;;7.39;100.00;100281.69;5040173;28;20388;-76
2024/03/22 09:25:40;;;;;;;82.03;13.63;;;;;;;7.38;100.00;100277.31;5040088;28;20045;-76
2024/03/22 09:28:06;;;;;;;85.35;13.15;;;;;;;7.50;100.00;100296.41;5040170;28;20018;-77
2024/03/22 09:30:31;;;;;;;101.15;14.55;;;;;;;7.60;100.00;100290.72;5038955;28;20073;-76
2024/03/22 09:32:57;;;;;;;100.13;14.15;;;;;;;7.66;100.00;100287.28;5040823;28;20030;-77
2024/03/22 09:35:23;;;;;;;89.35;12.98;;;;;;;7.79;100.00;100289.25;5041117;28;20059;-76
2024/03/22 09:37:48;;;;;;;82.47;13.48;;;;;;;7.75;100.00;100278.91;5042134;28;20052;-77
2024/03/22 09:40:13;;;;;;;76.72;11.68;;;;;;;7.91;100.00;100285.00;5041388;28;20034;-77
2024/03/22 09:42:41;;;;;;;85.60;13.50;;;;;;;7.99;100.00;100283.00;5040337;28;20053;-78
2024/03/22 09:45:11;;;;;;;81.28;12.80;;;;;;;8.02;100.00;100283.66;5039279;28;20029;-77
2024/03/22 09:47:37;;;;;;;84.88;12.10;;;;;;;8.09;100.00;100285.34;5040628;28;20433;-77
2024/03/22 09:50:07;;;;;;;73.38;11.60;;;;;;;8.11;100.00;100280.63;5043560;28;20029;-77
2024/03/22 09:52:33;;;;;;;68.05;11.75;;;;;;;8.26;100.00;100282.38;5039523;28;20026;-78
2024/03/22 09:54:58;;;;;;;72.05;11.88;;;;;;;8.14;100.00;100255.28;5038166;28;20033;-77
2024/03/22 09:57:24;;;;;;;78.70;12.35;;;;;;;8.45;100.00;100287.06;5044019;28;20112;-77
2024/03/22 09:59:50;;;;;;;70.68;12.48;;;;;;;8.54;100.00;100282.34;5057658;28;20060;-76
2024/03/22 10:02:16;;;;;;;79.93;11.77;;;;;;;8.65;100.00;100271.88;5057836;28;20113;-76
2024/03/22 10:04:41;;;;;;;71.95;11.32;;;;;;;8.67;100.00;100255.59;5058025;28;20029;-77
2024/03/22 10:07:10;;;;;;;72.70;10.88;;;;;;;8.68;100.00;100266.13;5058454;28;20154;-77
2024/03/22 10:09:36;;;;;;;75.53;11.52;;;;;;;8.72;100.00;100274.59;5058079;28;20033;-76
2024/03/22 10:12:03;;;;;;;67.90;10.75;;;;;;;8.74;100.00;100269.03;5055399;28;20025;-77
2024/03/22 10:14:29;;;;;;;71.65;10.20;;;;;;;8.77;100.00;100264.09;5057123;28;20097;-76
2024/03/22 10:16:55;;;;;;;71.85;10.88;;;;;;;8.75;100.00;100251.91;5055429;28;20055;-76
2024/03/22 10:19:21;;;;;;;75.43;11.68;;;;;;;9.00;100.00;100265.59;5056564;28;20037;-76
2024/03/22 10:21:48;;;;;;;69.07;10.25;;;;;;;9.10;100.00;100264.19;5057251;28;20051;-75
2024/03/22 10:24:14;;;;;;;60.05;8.70;;;;;;;9.12;100.00;100262.13;5057406;28;20128;-77
2024/03/22 10:26:39;;;;;;;75.93;11.65;;;;;;;9.16;100.00;100254.50;5058358;28;20056;-76
2024/03/22 10:29:08;;;;;;;78.55;11.93;;;;;;;9.18;100.00;100258.66;5058703;28;20037;-76
2024/03/22 10:31:35;;;;;;;68.82;10.65;;;;;;;9.23;100.00;100257.19;5059619;28;20028;-76
2024/03/22 10:34:03;;;;;;;79.97;11.02;;;;;;;9.18;100.00;100250.59;5059049;28;20047;-77
2024/03/22 10:36:30;;;;;;;72.30;10.48;;;;;;;9.18;100.00;100239.03;5058344;28;20025;-76
2024/03/22 10:38:58;;;;;;;68.95;10.52;;;;;;;9.15;100.00;100231.38;5058956;28;20100;-76
2024/03/22 10:41:24;;;;;;;61.42;10.95;;;;;;;9.15;100.00;100234.06;5059090;28;20512;-76
2024/03/22 10:43:49;;;;;;;60.40;10.15;;;;;;;9.09;100.00;100229.50;5058280;28;20079;-76
2024/03/22 10:46:19;;;;;;;74.03;11.27;;;;;;;9.15;100.00;100234.06;5057848;28;20025;-75
2024/03/22 10:48:45;;;;;;;62.72;10.85;;;;;;;9.15;100.00;100226.84;5057274;28;20025;-75
2024/03/22 10:51:11;;;;;;;62.25;9.73;;;;;;;9.22;100.00;100229.53;5055271;28;20058;-77
2024/03/22 10:53:38;;;;;;;62.55;10.40;;;;;;;9.25;100.00;100221.06;5058531;28;20025;-76
2024/03/22 10:56:04;;;;;;;67.65;11.43;;;;;;;9.10;100.00;100201.63;5053875;28;20032;-77
2024/03/22 10:58:30;;;;;;;63.90;10.57;;;;;;;9.28;100.00;100217.97;5037581;28;20033;-76
2024/03/22 11:00:56;;;;;;;50.53;9.27;;;;;;;8.83;100.00;100142.56;5037600;28;20049;-75
2024/03/22 11:03:26;;;;;;;58.33;9.60;;;;;;;9.24;100.00;100211.38;5036486;28;20499;-76